Terminal Aerodrome Forecast
Issued by NWS Pueblo, CO

Home | Current Version | Previous Version | Text Only | Print | Product List | Glossary On
Versions: 1 2 3 4 5 6 7 8 9 10 11 12 13 14 15 16 17 18 19 20 21 22 23 24 25
000
FTUS45 KPUB 210309 AAB
TAFCOS
TAF AMD
KCOS 210309Z 2103/2124 32018G28KT P6SM SCT150 BKN250
     FM210500 35012KT P6SM BKN150
     FM211300 35015KT P6SM SCT050 BKN100
     FM211500 35015KT P6SM BKN040
     FM211900 02012KT P6SM SCT040 SCT150=

USA.gov is the U.S. government's official web portal to all federal, state and local government web resources and services.